Time;durP1;ratioP1;P1;durP2;ratioP2;P2;SDS_P1;SDS_P2;PMS_P1;PMS_P2;Temp;Humidity;BMP_temperature;BMP_pressure;BME280_temperature;BME280_humidity;BME280_pressure;Samples;Min_cycle;Max_cycle;Signal;HPM_P1;HPM_P2
2021/08/06 00:01:19;;;;;;;12.02;9.00;;;25.50;63.50;;;;;;5058594;28;20022;-44
2021/08/06 00:03:45;;;;;;;11.27;9.25;;;25.40;63.50;;;;;;5058744;28;20029;-43
2021/08/06 00:06:11;;;;;;;15.40;10.68;;;25.40;63.60;;;;;;5058458;28;20293;-35
2021/08/06 00:08:37;;;;;;;10.75;9.35;;;25.40;63.90;;;;;;5057476;28;20037;-43
2021/08/06 00:11:04;;;;;;;13.43;8.85;;;25.30;63.90;;;;;;5058555;28;20028;-35
2021/08/06 00:13:30;;;;;;;12.38;9.27;;;25.30;64.00;;;;;;5058170;28;20063;-45
2021/08/06 00:15:57;;;;;;;14.30;9.50;;;25.20;64.20;;;;;;5057946;28;20087;-35
2021/08/06 00:18:23;;;;;;;12.30;9.65;;;25.20;64.30;;;;;;5058096;28;20044;-36
2021/08/06 00:20:50;;;;;;;14.38;9.60;;;25.20;64.50;;;;;;5058360;28;20028;-35
2021/08/06 00:23:15;;;;;;;14.50;11.38;;;25.10;64.60;;;;;;5058072;28;20029;-44
2021/08/06 00:25:41;;;;;;;21.17;12.88;;;25.10;64.90;;;;;;5058183;28;20037;-44
2021/08/06 00:28:07;;;;;;;17.00;12.68;;;25.00;65.10;;;;;;5057943;28;20478;-42
2021/08/06 00:30:33;;;;;;;17.67;12.80;;;25.00;65.30;;;;;;5058146;28;20037;-44
2021/08/06 00:32:58;;;;;;;19.95;11.50;;;24.90;65.40;;;;;;5057838;28;20302;-35
2021/08/06 00:35:24;;;;;;;16.13;12.00;;;24.80;65.60;;;;;;5058144;28;20025;-46
2021/08/06 00:37:50;;;;;;;19.05;12.68;;;24.80;65.90;;;;;;5057837;28;20087;-36
2021/08/06 00:40:16;;;;;;;19.15;12.30;;;24.80;66.10;;;;;;5057909;28;20117;-35
2021/08/06 00:42:41;;;;;;;16.05;11.43;;;24.80;66.30;;;;;;5057752;28;20033;-44
2021/08/06 00:45:08;;;;;;;16.10;12.85;;;24.70;66.40;;;;;;5057692;28;20031;-43
2021/08/06 00:47:34;;;;;;;20.27;13.18;;;24.70;66.60;;;;;;5057465;28;20449;-44
2021/08/06 00:50:00;;;;;;;18.38;12.93;;;24.70;66.80;;;;;;5057668;28;20029;-42
2021/08/06 00:52:27;;;;;;;20.85;12.40;;;24.60;67.00;;;;;;5057366;28;20032;-35
2021/08/06 00:54:53;;;;;;;17.50;11.77;;;24.60;67.20;;;;;;5057436;28;20040;-35
2021/08/06 00:57:19;;;;;;;17.33;12.32;;;24.60;67.20;;;;;;5057467;28;20040;-44
2021/08/06 00:59:44;;;;;;;17.42;13.35;;;24.60;67.30;;;;;;5057665;28;20017;-35
2021/08/06 01:02:46;;;;;;;19.88;13.60;;;24.60;67.60;;;;;;5057180;28;20476;-36
2021/08/06 01:05:18;;;;;;;15.25;12.60;;;24.60;68.30;;;;;;5056986;28;20033;-44
2021/08/06 01:08:11;;;;;;;16.02;13.05;;;24.40;67.80;;;;;;5057139;28;20116;-35
2021/08/06 01:10:52;;;;;;;17.17;13.52;;;24.40;68.10;;;;;;5057731;28;20033;-35
2021/08/06 01:13:26;;;;;;;20.60;12.70;;;24.40;68.20;;;;;;5057194;28;20116;-43
2021/08/06 01:15:54;;;;;;;19.13;13.40;;;24.40;68.50;;;;;;5056702;28;20049;-44
2021/08/06 01:18:20;;;;;;;21.05;13.60;;;24.30;68.70;;;;;;5056960;28;20356;-45
2021/08/06 01:20:59;;;;;;;20.25;13.02;;;24.30;68.90;;;;;;5057115;28;20116;-36
2021/08/06 01:23:29;;;;;;;16.42;13.15;;;24.30;68.90;;;;;;5056684;28;20036;-35
2021/08/06 01:25:55;;;;;;;18.50;14.68;;;24.20;69.00;;;;;;5056996;28;20049;-44
2021/08/06 01:28:24;;;;;;;18.42;12.77;;;24.20;69.20;;;;;;5056997;28;20071;-35
2021/08/06 01:30:51;;;;;;;27.10;14.33;;;24.20;69.20;;;;;;5057041;28;20409;-44
2021/08/06 01:33:17;;;;;;;16.58;12.48;;;24.20;69.30;;;;;;5056907;28;20258;-35
2021/08/06 01:35:44;;;;;;;14.18;12.18;;;24.10;69.30;;;;;;5056904;28;20104;-45
2021/08/06 01:38:10;;;;;;;17.60;12.93;;;24.10;69.40;;;;;;5056412;28;20067;-35
2021/08/06 01:41:02;;;;;;;18.98;13.00;;;24.10;69.50;;;;;;5056902;28;20310;-35
2021/08/06 01:43:50;;;;;;;19.63;13.43;;;24.10;69.40;;;;;;5056387;28;20444;-43
2021/08/06 01:46:22;;;;;;;19.63;13.10;;;24.10;69.50;;;;;;5056639;28;20033;-35
2021/08/06 01:48:51;;;;;;;19.35;13.20;;;24.10;69.80;;;;;;5056737;28;20363;-44
2021/08/06 01:51:21;;;;;;;16.88;12.50;;;24.10;69.80;;;;;;5056703;28;20056;-41
2021/08/06 01:53:48;;;;;;;19.45;13.43;;;24.10;69.90;;;;;;5056369;28;20339;-36
2021/08/06 01:56:18;;;;;;;17.67;13.20;;;24.10;69.90;;;;;;5056367;28;20082;-44
2021/08/06 01:58:50;;;;;;;17.50;12.25;;;24.10;69.90;;;;;;5055877;28;20037;-45
2021/08/06 02:01:16;;;;;;;19.75;14.65;;;24.10;70.00;;;;;;5056453;28;20021;-35
2021/08/06 02:03:42;;;;;;;23.08;14.45;;;24.10;70.70;;;;;;5056075;28;20443;-44
2021/08/06 02:06:09;;;;;;;19.38;14.80;;;24.10;70.20;;;;;;5055719;28;20029;-44
2021/08/06 02:08:38;;;;;;;16.95;13.02;;;24.10;70.20;;;;;;5056047;28;20045;-36
2021/08/06 02:11:05;;;;;;;17.33;13.82;;;24.10;70.30;;;;;;5055984;28;20036;-35
2021/08/06 02:13:31;;;;;;;17.08;12.55;;;24.10;70.40;;;;;;5055858;28;20041;-36
2021/08/06 02:15:58;;;;;;;18.02;13.32;;;24.10;70.40;;;;;;5055665;28;20072;-35
2021/08/06 02:18:25;;;;;;;19.20;12.95;;;24.10;70.60;;;;;;5055936;28;20051;-44
2021/08/06 02:20:56;;;;;;;21.70;13.70;;;24.10;70.70;;;;;;5056304;28;20376;-34
2021/08/06 02:23:24;;;;;;;18.67;12.98;;;24.00;70.80;;;;;;5054565;28;20125;-43
2021/08/06 02:25:54;;;;;;;18.35;14.48;;;24.00;70.80;;;;;;5056043;28;20405;-37
2021/08/06 02:28:21;;;;;;;21.67;15.57;;;24.00;71.10;;;;;;5056003;28;20033;-45
2021/08/06 02:30:48;;;;;;;19.95;15.57;;;24.00;71.10;;;;;;5055974;28;20033;-36
2021/08/06 02:33:15;;;;;;;20.23;14.98;;;23.90;71.30;;;;;;5055829;28;20086;-42
2021/08/06 02:35:40;;;;;;;18.02;13.65;;;23.90;71.40;;;;;;5055990;28;20056;-36
2021/08/06 02:38:06;;;;;;;22.55;14.40;;;23.90;71.40;;;;;;5055732;28;20056;-37
2021/08/06 02:40:32;;;;;;;17.35;13.88;;;23.90;71.50;;;;;;5056113;28;20036;-36
2021/08/06 02:42:58;;;;;;;18.48;13.70;;;23.90;71.60;;;;;;5055872;28;20029;-36
2021/08/06 02:45:24;;;;;;;17.85;13.18;;;23.90;71.80;;;;;;5055351;28;20298;-36
2021/08/06 02:47:49;;;;;;;18.63;13.75;;;23.90;71.90;;;;;;5055505;28;20097;-43
2021/08/06 02:50:15;;;;;;;19.58;12.77;;;23.90;72.10;;;;;;5055732;28;20033;-45
2021/08/06 02:52:41;;;;;;;16.95;13.07;;;23.80;72.20;;;;;;5056075;28;20342;-37
2021/08/06 02:55:08;;;;;;;20.10;14.20;;;23.80;72.50;;;;;;5055846;28;20040;-44
2021/08/06 02:57:34;;;;;;;19.05;13.02;;;23.80;72.70;;;;;;5055678;28;20037;-41
2021/08/06 02:59:59;;;;;;;21.02;14.38;;;23.80;72.90;;;;;;5055627;28;20035;-42
2021/08/06 03:02:25;;;;;;;19.50;14.07;;;23.80;73.20;;;;;;5055436;28;20373;-42
2021/08/06 03:04:51;;;;;;;19.23;14.95;;;23.70;73.20;;;;;;5055436;28;20040;-43
2021/08/06 03:07:20;;;;;;;24.85;15.38;;;23.70;73.40;;;;;;5055268;28;20033;-35
2021/08/06 03:09:46;;;;;;;18.50;14.50;;;23.70;73.50;;;;;;5056640;28;20029;-43
2021/08/06 03:12:11;;;;;;;19.80;14.45;;;23.70;73.70;;;;;;5059237;28;20204;-34
2021/08/06 03:14:37;;;;;;;19.10;14.25;;;23.60;73.80;;;;;;5059105;28;20120;-43
2021/08/06 03:17:04;;;;;;;20.42;14.68;;;23.60;74.00;;;;;;5059184;28;20029;-43
2021/08/06 03:19:29;;;;;;;18.02;14.70;;;23.60;74.30;;;;;;5059045;28;20056;-34
2021/08/06 03:21:55;;;;;;;20.30;15.15;;;23.60;74.40;;;;;;5059222;28;20060;-43
2021/08/06 03:24:20;;;;;;;19.30;13.88;;;23.60;74.70;;;;;;5058881;28;20063;-43
2021/08/06 03:26:46;;;;;;;25.17;15.90;;;23.60;75.00;;;;;;5058953;28;20033;-35
2021/08/06 03:29:12;;;;;;;23.35;16.08;;;23.60;75.20;;;;;;5059278;28;20028;-34
2021/08/06 03:31:37;;;;;;;27.20;15.23;;;23.60;75.50;;;;;;5059288;28;20037;-35
2021/08/06 03:34:03;;;;;;;21.52;15.45;;;23.60;75.70;;;;;;5059009;28;20413;-43
2021/08/06 03:36:29;;;;;;;23.60;15.32;;;23.50;75.70;;;;;;5059093;28;20274;-34
2021/08/06 03:38:55;;;;;;;18.50;14.98;;;23.60;75.80;;;;;;5058856;28;20025;-42
2021/08/06 03:41:22;;;;;;;22.30;16.98;;;23.60;75.80;;;;;;5058493;28;20029;-43
2021/08/06 03:43:47;;;;;;;23.83;18.35;;;23.60;75.90;;;;;;5058675;28;20061;-34
2021/08/06 03:46:13;;;;;;;21.48;15.70;;;23.70;75.90;;;;;;5058813;28;20033;-34
2021/08/06 03:48:39;;;;;;;21.67;15.75;;;23.70;75.90;;;;;;5058686;28;20301;-40
2021/08/06 03:51:05;;;;;;;28.70;17.48;;;23.70;75.90;;;;;;5058989;28;20325;-44
2021/08/06 03:53:31;;;;;;;24.42;17.80;;;23.70;75.90;;;;;;5058414;28;20029;-44
2021/08/06 03:55:56;;;;;;;17.95;15.93;;;23.70;75.90;;;;;;5058749;28;20033;-34
2021/08/06 03:58:22;;;;;;;18.92;13.68;;;23.80;75.90;;;;;;5058272;28;20037;-43
2021/08/06 04:00:48;;;;;;;23.80;15.02;;;23.80;75.80;;;;;;5058727;28;20032;-43
2021/08/06 04:03:13;;;;;;;20.48;14.55;;;23.80;75.70;;;;;;5058179;28;20199;-35
2021/08/06 04:05:39;;;;;;;16.40;13.60;;;23.80;75.50;;;;;;5058539;28;20104;-43
2021/08/06 04:08:06;;;;;;;15.00;12.77;;;23.80;75.40;;;;;;5058265;28;20043;-43
2021/08/06 04:10:32;;;;;;;18.52;12.63;;;23.80;75.20;;;;;;5058378;28;20072;-43
2021/08/06 04:12:58;;;;;;;19.48;13.45;;;23.80;75.20;;;;;;5057903;28;20057;-35
2021/08/06 04:15:24;;;;;;;18.67;12.63;;;23.80;75.10;;;;;;5057601;28;20107;-35
2021/08/06 04:17:50;;;;;;;21.13;13.07;;;23.90;75.00;;;;;;5057607;28;20072;-36
2021/08/06 04:20:15;;;;;;;22.08;13.95;;;23.90;74.90;;;;;;5057784;28;20068;-35
2021/08/06 04:22:42;;;;;;;17.60;12.52;;;23.90;74.80;;;;;;5057253;28;20029;-42
2021/08/06 04:25:09;;;;;;;26.80;14.95;;;23.90;74.60;;;;;;5057693;28;20029;-35
2021/08/06 04:27:34;;;;;;;27.98;13.00;;;24.00;74.50;;;;;;5057603;28;20025;-36
2021/08/06 04:30:00;;;;;;;20.70;12.50;;;24.00;74.20;;;;;;5057972;28;20044;-43
2021/08/06 04:32:26;;;;;;;30.52;12.88;;;24.10;74.00;;;;;;5057483;28;20443;-37
2021/08/06 04:34:51;;;;;;;34.20;17.27;;;24.10;73.90;;;;;;5057971;28;20119;-45
2021/08/06 04:37:17;;;;;;;45.95;21.35;;;24.10;73.70;;;;;;5057269;28;20119;-37
2021/08/06 04:39:43;;;;;;;43.47;20.52;;;24.10;73.50;;;;;;5057542;28;20075;-44
2021/08/06 04:42:08;;;;;;;50.20;20.98;;;24.20;73.40;;;;;;5057490;28;20025;-43
2021/08/06 04:44:38;;;;;;;53.03;20.92;;;24.20;73.30;;;;;;5057346;28;20017;-37
2021/08/06 04:47:04;;;;;;;33.47;17.02;;;24.20;73.20;;;;;;5057307;28;20086;-44
2021/08/06 04:49:30;;;;;;;38.50;19.33;;;24.30;73.20;;;;;;5057524;28;20058;-36
2021/08/06 04:51:56;;;;;;;30.65;15.45;;;24.30;73.30;;;;;;5056185;28;20033;-36
2021/08/06 04:54:22;;;;;;;24.33;13.60;;;24.30;73.30;;;;;;5056171;28;20352;-45
2021/08/06 04:56:47;;;;;;;20.17;12.98;;;24.40;73.10;;;;;;5057050;28;20458;-37
2021/08/06 04:59:14;;;;;;;24.48;14.13;;;24.40;72.90;;;;;;5057173;28;20025;-36
2021/08/06 05:01:39;;;;;;;18.23;11.80;;;24.40;72.90;;;;;;5057297;28;20487;-36
2021/08/06 05:04:05;;;;;;;20.48;12.05;;;24.50;72.80;;;;;;5056972;28;20025;-36
2021/08/06 05:06:31;;;;;;;15.68;11.10;;;24.50;72.80;;;;;;5057242;28;20305;-39
2021/08/06 05:08:57;;;;;;;13.20;11.07;;;24.50;72.70;;;;;;5057036;28;20033;-44
2021/08/06 05:11:23;;;;;;;16.95;13.13;;;24.50;72.70;;;;;;5057101;28;20032;-36
2021/08/06 05:13:49;;;;;;;14.13;11.00;;;24.60;72.80;;;;;;5056942;28;20033;-43
2021/08/06 05:16:14;;;;;;;21.42;11.35;;;24.60;72.80;;;;;;5056489;28;20059;-45
2021/08/06 05:18:40;;;;;;;16.23;10.35;;;24.60;72.90;;;;;;5056639;28;20321;-36
2021/08/06 05:21:06;;;;;;;20.67;12.77;;;24.70;73.10;;;;;;5057058;28;20029;-36
2021/08/06 05:23:32;;;;;;;20.40;12.73;;;24.80;73.30;;;;;;5056559;28;20441;-44
2021/08/06 05:25:58;;;;;;;20.52;12.85;;;24.80;73.20;;;;;;5056921;28;20036;-47
2021/08/06 05:28:24;;;;;;;22.42;13.27;;;24.80;73.10;;;;;;5055221;28;20123;-37
2021/08/06 05:30:50;;;;;;;26.15;16.98;;;24.90;73.00;;;;;;5056765;28;20033;-36
2021/08/06 05:33:16;;;;;;;22.42;14.35;;;24.90;72.90;;;;;;5055382;28;20082;-45
2021/08/06 05:35:41;;;;;;;24.52;15.38;;;25.00;73.00;;;;;;5056595;28;20036;-36
2021/08/06 05:38:08;;;;;;;18.65;12.40;;;25.00;73.00;;;;;;5056550;28;20206;-44
2021/08/06 05:40:34;;;;;;;18.48;12.48;;;25.10;72.70;;;;;;5056386;28;20025;-36
2021/08/06 05:43:00;;;;;;;16.30;12.52;;;25.10;72.60;;;;;;5056486;28;20377;-36
2021/08/06 05:45:25;;;;;;;21.40;13.68;;;25.20;72.60;;;;;;5056389;28;20033;-36
2021/08/06 05:47:54;;;;;;;20.50;12.98;;;25.20;72.40;;;;;;5056062;28;20428;-44
2021/08/06 05:50:24;;;;;;;22.10;11.95;;;25.30;72.20;;;;;;5056443;28;20468;-37
2021/08/06 05:52:50;;;;;;;14.80;12.77;;;25.40;71.90;;;;;;5056090;28;20036;-46
2021/08/06 05:55:17;;;;;;;17.35;11.75;;;25.40;71.60;;;;;;5056201;28;20033;-44
2021/08/06 05:57:43;;;;;;;18.92;12.23;;;25.50;71.50;;;;;;5056052;28;20336;-36
2021/08/06 06:00:12;;;;;;;17.83;12.95;;;25.60;71.30;;;;;;5056176;28;20029;-47
2021/08/06 06:02:37;;;;;;;16.02;11.85;;;25.70;71.20;;;;;;5055915;28;20031;-37
2021/08/06 06:05:04;;;;;;;17.20;11.95;;;25.70;70.60;;;;;;5055830;28;20401;-47
2021/08/06 06:07:30;;;;;;;19.20;10.43;;;25.80;70.30;;;;;;5056191;28;20029;-46
2021/08/06 06:09:55;;;;;;;16.60;10.63;;;25.80;69.80;;;;;;5055953;28;20031;-45
2021/08/06 06:12:21;;;;;;;12.93;10.52;;;25.90;69.90;;;;;;5056002;28;20189;-38
2021/08/06 06:14:47;;;;;;;14.60;9.48;;;25.90;69.50;;;;;;5055588;28;20060;-45
2021/08/06 06:17:13;;;;;;;14.23;10.00;;;26.00;69.30;;;;;;5055920;28;20021;-36
2021/08/06 06:19:39;;;;;;;13.75;10.50;;;26.00;68.80;;;;;;5055718;28;20061;-44
2021/08/06 06:22:05;;;;;;;19.10;11.40;;;26.00;68.90;;;;;;5055597;28;20100;-44
2021/08/06 06:24:32;;;;;;;22.35;12.90;;;26.00;68.40;;;;;;5055224;28;20029;-36
2021/08/06 06:26:58;;;;;;;19.58;12.50;;;26.10;68.10;;;;;;5055292;28;20397;-45
2021/08/06 06:29:23;;;;;;;28.85;14.07;;;26.10;68.00;;;;;;5055364;28;20032;-45
2021/08/06 06:31:49;;;;;;;23.70;11.70;;;26.10;68.00;;;;;;5055020;28;20029;-39
2021/08/06 06:34:15;;;;;;;21.00;11.98;;;26.10;68.00;;;;;;5054371;28;20032;-37
2021/08/06 06:36:40;;;;;;;17.02;11.25;;;26.20;68.10;;;;;;5055815;28;20037;-37
2021/08/06 06:39:06;;;;;;;22.42;17.58;;;26.20;68.00;;;;;;5055484;28;20472;-36
2021/08/06 06:41:32;;;;;;;16.60;9.55;;;26.20;68.00;;;;;;5055259;28;20040;-46
2021/08/06 06:43:58;;;;;;;13.32;9.25;;;26.20;67.80;;;;;;5055563;28;20116;-37
2021/08/06 06:46:24;;;;;;;16.88;10.27;;;26.20;67.90;;;;;;5059107;28;20029;-37
2021/08/06 06:48:49;;;;;;;17.20;9.98;;;26.20;67.80;;;;;;5059637;28;20389;-45
2021/08/06 06:51:15;;;;;;;15.02;9.95;;;26.20;68.00;;;;;;5059609;28;20083;-45
2021/08/06 06:53:41;;;;;;;12.20;9.38;;;26.20;68.20;;;;;;5059531;28;20029;-37
2021/08/06 06:56:06;;;;;;;14.30;10.00;;;26.20;68.40;;;;;;5059591;28;20092;-36
2021/08/06 06:58:32;;;;;;;13.85;10.20;;;26.30;68.70;;;;;;5059453;28;20120;-40
2021/08/06 07:00:58;;;;;;;15.55;10.65;;;26.30;68.90;;;;;;5059502;28;20290;-36
2021/08/06 07:03:24;;;;;;;14.60;10.93;;;26.30;68.80;;;;;;5059389;28;20029;-37
2021/08/06 07:05:49;;;;;;;13.93;9.85;;;26.30;68.30;;;;;;5059122;28;20032;-36
2021/08/06 07:08:15;;;;;;;19.25;11.45;;;26.20;68.40;;;;;;5058935;28;20029;-45
2021/08/06 07:10:41;;;;;;;14.07;9.43;;;26.20;68.40;;;;;;5059331;28;20029;-36
2021/08/06 07:13:06;;;;;;;17.23;8.95;;;26.10;68.50;;;;;;5058914;28;20324;-45
2021/08/06 07:15:32;;;;;;;13.02;8.15;;;26.10;68.60;;;;;;5058765;28;20437;-36
2021/08/06 07:17:58;;;;;;;9.35;7.57;;;26.10;68.00;;;;;;5059302;28;20028;-37
2021/08/06 07:20:24;;;;;;;13.65;7.95;;;26.00;67.70;;;;;;5059419;28;20036;-44
2021/08/06 07:22:49;;;;;;;9.75;6.85;;;26.00;67.80;;;;;;5058882;28;20025;-46
2021/08/06 07:25:17;;;;;;;13.23;7.28;;;26.00;67.80;;;;;;5058908;28;20033;-35
2021/08/06 07:27:44;;;;;;;11.25;7.53;;;25.90;68.20;;;;;;5058928;28;20029;-44
2021/08/06 07:30:11;;;;;;;15.20;7.80;;;25.90;68.40;;;;;;5058748;28;20055;-36
2021/08/06 07:32:37;;;;;;;10.18;7.18;;;25.80;69.30;;;;;;5055889;28;20029;-43
2021/08/06 07:35:04;;;;;;;11.55;8.70;;;25.70;69.80;;;;;;5058643;28;20089;-36
2021/08/06 07:37:30;;;;;;;14.32;8.00;;;25.60;70.50;;;;;;5058130;28;20061;-44
2021/08/06 07:39:55;;;;;;;15.93;9.27;;;25.50;70.80;;;;;;5058745;28;20079;-46
2021/08/06 07:42:21;;;;;;;15.98;7.88;;;25.40;70.90;;;;;;5058635;28;20036;-36
2021/08/06 07:44:47;;;;;;;12.45;9.02;;;25.30;71.40;;;;;;5058414;28;20060;-46
2021/08/06 07:47:13;;;;;;;9.35;7.72;;;25.20;72.20;;;;;;5058177;28;20063;-36
2021/08/06 07:49:41;;;;;;;12.60;7.40;;;25.10;72.80;;;;;;5058336;28;20033;-44
2021/08/06 07:52:08;;;;;;;12.15;7.70;;;25.00;73.20;;;;;;5057709;28;20063;-36
2021/08/06 07:54:34;;;;;;;12.35;7.18;;;25.00;73.30;;;;;;5058459;28;20025;-44
2021/08/06 07:56:59;;;;;;;11.70;7.47;;;24.90;73.00;;;;;;5056805;28;20039;-44
2021/08/06 07:59:25;;;;;;;16.88;9.10;;;24.90;73.80;;;;;;5058308;28;20036;-43
2021/08/06 08:01:51;;;;;;;17.70;8.63;;;24.90;74.40;;;;;;5057724;28;20079;-46
2021/08/06 08:04:17;;;;;;;12.40;8.65;;;25.00;74.50;;;;;;5058129;28;20342;-45
2021/08/06 08:06:43;;;;;;;20.80;11.55;;;25.00;74.20;;;;;;5057933;28;20029;-45
2021/08/06 08:09:09;;;;;;;37.47;18.23;;;25.00;73.90;;;;;;5057160;28;20025;-36
2021/08/06 08:11:34;;;;;;;37.58;18.92;;;25.00;72.70;;;;;;5058101;28;20029;-46
2021/08/06 08:14:00;;;;;;;41.15;18.67;;;25.00;72.70;;;;;;5058040;28;20440;-36
2021/08/06 08:16:26;;;;;;;44.53;20.35;;;25.00;72.20;;;;;;5057217;28;20163;-36
2021/08/06 08:18:52;;;;;;;39.17;19.02;;;25.00;72.50;;;;;;5057516;28;20029;-44
2021/08/06 08:21:17;;;;;;;45.97;22.30;;;25.00;72.10;;;;;;5054645;28;20044;-45
2021/08/06 08:23:44;;;;;;;39.38;17.95;;;25.00;71.90;;;;;;5056338;28;20438;-36
2021/08/06 08:26:10;;;;;;;39.90;20.83;;;25.00;71.70;;;;;;5057229;28;20104;-44
2021/08/06 08:28:36;;;;;;;40.72;19.60;;;25.00;71.60;;;;;;5057255;28;20369;-47
2021/08/06 08:31:02;;;;;;;34.50;17.55;;;25.00;71.00;;;;;;5056990;28;20037;-36
2021/08/06 08:33:27;;;;;;;22.15;12.80;;;25.00;71.30;;;;;;5057251;28;20047;-48
2021/08/06 08:35:53;;;;;;;19.17;10.60;;;25.00;70.60;;;;;;5057402;28;20373;-45
2021/08/06 08:38:19;;;;;;;14.40;8.93;;;25.00;70.00;;;;;;5056677;28;20028;-40
2021/08/06 08:40:45;;;;;;;15.07;9.65;;;25.10;69.60;;;;;;5057478;28;20104;-36
2021/08/06 08:43:11;;;;;;;9.38;6.60;;;25.20;70.90;;;;;;5056795;28;20316;-36
2021/08/06 08:45:41;;;;;;;11.02;6.20;;;25.40;69.10;;;;;;5057338;28;20021;-45
2021/08/06 08:48:08;;;;;;;;;;;25.50;68.70;;;;;;5057078;28;20029;-44
2021/08/06 08:50:35;;;;;;;13.38;8.07;;;25.70;68.90;;;;;;5056870;28;19908;-36
2021/08/06 08:53:01;;;;;;;11.15;5.90;;;25.90;67.60;;;;;;5056473;28;20040;-36
2021/08/06 08:55:27;;;;;;;7.32;5.00;;;26.10;66.90;;;;;;5057208;28;20033;-37
2021/08/06 08:57:52;;;;;;;7.03;4.43;;;26.30;65.10;;;;;;5056367;28;20420;-36
2021/08/06 09:00:18;;;;;;;9.98;4.50;;;26.50;64.20;;;;;;5057246;28;20032;-48
2021/08/06 09:02:44;;;;;;;9.32;4.82;;;26.60;62.80;;;;;;5056055;28;20021;-44
2021/08/06 09:05:23;;;;;;;10.10;5.00;;;26.80;62.40;;;;;;5056523;28;20159;-48
2021/08/06 09:07:49;;;;;;;15.25;4.35;;;27.00;62.00;;;;;;5056369;28;20032;-46
2021/08/06 09:10:28;;;;;;;12.30;5.25;;;27.20;61.20;;;;;;5056438;28;20408;-45
2021/08/06 09:12:57;;;;;;;6.38;4.10;;;27.30;60.60;;;;;;5054493;28;20051;-45
2021/08/06 09:15:47;;;;;;;8.60;6.45;;;27.50;59.00;;;;;;5056091;28;20060;-36
2021/08/06 09:18:51;;;;;;;7.80;4.50;;;27.70;58.80;;;;;;5055166;28;20444;-48
2021/08/06 09:21:17;;;;;;;10.88;6.40;;;27.90;57.50;;;;;;5053680;28;20049;-37
2021/08/06 09:23:49;;;;;;;13.43;5.78;;;28.00;57.30;;;;;;5054212;28;20178;-46
2021/08/06 09:26:28;;;;;;;18.20;6.53;;;28.10;57.10;;;;;;5055029;28;20045;-36
2021/08/06 09:29:06;;;;;;;13.95;4.68;;;28.20;56.80;;;;;;5055176;28;20039;-37
2021/08/06 09:31:38;;;;;;;9.43;4.05;;;28.20;56.30;;;;;;5056327;28;20033;-49
2021/08/06 09:34:19;;;;;;;8.80;4.70;;;28.30;55.20;;;;;;5056060;28;20339;-37
2021/08/06 09:36:58;;;;;;;14.30;4.90;;;28.40;54.30;;;;;;5055766;28;20039;-48
2021/08/06 09:39:25;;;;;;;9.63;5.10;;;28.40;54.20;;;;;;5056275;28;20036;-48
2021/08/06 09:41:51;;;;;;;13.98;5.22;;;28.50;54.20;;;;;;5054848;28;20029;-37
2021/08/06 09:44:35;;;;;;;9.05;4.68;;;28.50;54.40;;;;;;5055695;28;20025;-48
2021/08/06 09:47:16;;;;;;;10.80;4.20;;;28.60;54.50;;;;;;5055935;28;20051;-50
2021/08/06 09:49:51;;;;;;;12.15;5.20;;;28.70;53.40;;;;;;5056290;28;20381;-48
2021/08/06 09:52:25;;;;;;;9.70;4.22;;;28.80;53.00;;;;;;5055464;28;20033;-48
2021/08/06 09:54:51;;;;;;;8.73;4.80;;;28.90;53.50;;;;;;5055876;28;20040;-41
2021/08/06 09:57:18;;;;;;;19.80;6.97;;;28.90;53.50;;;;;;5055580;28;20021;-37
2021/08/06 09:59:57;;;;;;;12.38;6.78;;;29.00;53.00;;;;;;5055966;28;20025;-37
2021/08/06 10:02:27;;;;;;;16.92;7.00;;;29.10;52.20;;;;;;5055430;28;20024;-36
2021/08/06 10:04:56;;;;;;;12.32;6.55;;;29.10;51.50;;;;;;5056035;28;20041;-47
2021/08/06 10:07:24;;;;;;;15.63;5.72;;;29.20;50.80;;;;;;5055860;28;20033;-47
2021/08/06 10:09:50;;;;;;;13.80;6.05;;;29.20;50.90;;;;;;5055902;28;20041;-36
2021/08/06 10:12:16;;;;;;;15.52;6.75;;;29.30;51.20;;;;;;5055205;28;20032;-37
2021/08/06 10:14:42;;;;;;;18.95;6.40;;;29.30;51.00;;;;;;5055576;28;20039;-36
2021/08/06 10:17:10;;;;;;;9.95;4.85;;;29.30;50.80;;;;;;5055484;28;20112;-36
2021/08/06 10:19:35;;;;;;;15.73;4.40;;;29.30;51.10;;;;;;5054840;28;20043;-50
2021/08/06 10:22:03;;;;;;;12.10;4.47;;;29.30;50.80;;;;;;5054371;28;20432;-36
2021/08/06 10:24:30;;;;;;;17.30;4.80;;;29.30;50.70;;;;;;5055698;28;20090;-49
2021/08/06 10:26:56;;;;;;;13.20;4.32;;;29.40;50.60;;;;;;5054985;28;20467;-37
2021/08/06 10:29:22;;;;;;;12.52;4.28;;;29.40;50.40;;;;;;5055751;28;20094;-50
2021/08/06 10:32:08;;;;;;;12.65;4.15;;;29.50;50.10;;;;;;5055640;28;20025;-37
2021/08/06 10:34:34;;;;;;;11.27;3.67;;;29.60;49.70;;;;;;5055647;28;20247;-47
2021/08/06 10:36:59;;;;;;;18.00;4.32;;;29.70;49.90;;;;;;5055305;28;20292;-52
2021/08/06 10:39:31;;;;;;;15.52;4.63;;;29.70;49.90;;;;;;5055236;28;20017;-37
2021/08/06 10:41:58;;;;;;;13.70;4.90;;;29.80;49.80;;;;;;5055522;28;20033;-37
2021/08/06 10:44:24;;;;;;;13.43;4.10;;;29.90;49.50;;;;;;5055269;28;20048;-48
2021/08/06 10:46:57;;;;;;;7.13;3.80;;;30.10;49.70;;;;;;5055207;28;20025;-37
2021/08/06 10:49:23;;;;;;;6.30;3.75;;;30.20;50.00;;;;;;5054991;28;20034;-50
2021/08/06 10:51:50;;;;;;;7.85;4.50;;;30.30;50.90;;;;;;5054707;28;20488;-47
2021/08/06 10:54:29;;;;;;;9.93;5.32;;;30.50;52.10;;;;;;5055622;28;20340;-37
2021/08/06 10:57:29;;;;;;;9.27;5.97;;;30.70;53.70;;;;;;5055830;28;20120;-37
2021/08/06 10:59:55;;;;;;;8.23;4.75;;;30.90;53.50;;;;;;5054037;28;20302;-37
2021/08/06 11:02:42;;;;;;;6.97;4.45;;;31.00;53.50;;;;;;5055081;28;20029;-51
2021/08/06 11:05:29;;;;;;;7.28;4.05;;;31.10;53.20;;;;;;5055336;28;20041;-37
2021/08/06 11:07:55;;;;;;;9.73;5.30;;;31.30;53.10;;;;;;5055314;28;20033;-49
2021/08/06 11:10:43;;;;;;;7.80;5.10;;;31.30;54.10;;;;;;5055124;28;20029;-38
2021/08/06 11:13:37;;;;;;;6.80;4.97;;;31.50;54.90;;;;;;5054949;28;20053;-37
2021/08/06 11:16:08;;;;;;;7.63;5.50;;;31.50;54.50;;;;;;5054790;28;20067;-37
2021/08/06 11:18:33;;;;;;;8.90;6.43;;;31.50;55.10;;;;;;5054743;28;20021;-52
2021/08/06 11:21:00;;;;;;;8.90;6.00;;;31.50;55.40;;;;;;5055174;28;20036;-51
2021/08/06 11:23:27;;;;;;;9.73;6.43;;;31.50;55.40;;;;;;5054867;28;20033;-49
2021/08/06 11:25:53;;;;;;;8.07;6.38;;;31.50;55.90;;;;;;5054832;28;20033;-50
2021/08/06 11:28:26;;;;;;;13.15;8.30;;;31.40;55.30;;;;;;5055082;28;20033;-38
2021/08/06 11:30:53;;;;;;;12.55;7.10;;;31.40;56.40;;;;;;5057952;28;20033;-49
2021/08/06 11:33:19;;;;;;;13.00;8.13;;;31.30;57.00;;;;;;5058830;28;20056;-51
2021/08/06 11:35:45;;;;;;;10.63;6.95;;;31.20;57.50;;;;;;5061115;28;20037;-37
2021/08/06 11:38:14;;;;;;;9.43;7.35;;;31.10;57.00;;;;;;5058738;28;20033;-51
2021/08/06 11:40:51;;;;;;;7.07;6.30;;;31.00;58.60;;;;;;5058859;28;20029;-37
2021/08/06 11:43:23;;;;;;;12.65;7.88;;;30.90;58.30;;;;;;5058822;28;20029;-50
2021/08/06 11:45:52;;;;;;;12.32;8.20;;;30.70;59.10;;;;;;5058508;28;20424;-51
2021/08/06 11:48:18;;;;;;;10.07;7.45;;;30.60;59.20;;;;;;5058313;28;20040;-50
2021/08/06 11:50:45;;;;;;;8.63;6.60;;;30.50;58.90;;;;;;5058771;28;20387;-51
2021/08/06 11:53:16;;;;;;;8.63;7.03;;;30.40;58.40;;;;;;5058093;28;20032;-48
2021/08/06 11:55:43;;;;;;;9.75;8.15;;;30.30;58.70;;;;;;5058945;28;20112;-38
2021/08/06 11:58:09;;;;;;;14.40;8.63;;;30.20;60.40;;;;;;5058364;28;20033;-37
2021/08/06 12:00:37;;;;;;;12.23;9.13;;;30.00;61.70;;;;;;5058803;28;20108;-37
2021/08/06 12:03:11;;;;;;;12.95;10.15;;;29.90;61.90;;;;;;5058379;28;20040;-48
2021/08/06 12:05:45;;;;;;;11.27;6.95;;;29.80;62.80;;;;;;5058511;28;20363;-49
2021/08/06 12:08:33;;;;;;;11.00;6.05;;;29.70;62.10;;;;;;5057140;28;20439;-51
2021/08/06 12:11:04;;;;;;;13.30;7.95;;;29.60;61.40;;;;;;5058076;28;20044;-37
2021/08/06 12:13:34;;;;;;;11.20;6.10;;;29.50;62.30;;;;;;5057808;28;20029;-51
2021/08/06 12:16:00;;;;;;;11.07;5.80;;;29.40;62.20;;;;;;5057526;28;20058;-51
2021/08/06 12:18:27;;;;;;;11.38;6.95;;;29.30;62.40;;;;;;5057313;28;20079;-39
2021/08/06 12:20:56;;;;;;;18.55;7.68;;;29.10;63.60;;;;;;5058106;28;20033;-37
2021/08/06 12:23:22;;;;;;;15.23;6.83;;;29.00;64.70;;;;;;5057740;28;20385;-37
2021/08/06 12:26:08;;;;;;;12.73;6.13;;;28.70;64.80;;;;;;5057688;28;20577;-51
2021/08/06 12:28:37;;;;;;;14.15;7.25;;;28.50;64.80;;;;;;5056396;28;20112;-37
2021/08/06 12:31:11;;;;;;;14.68;7.10;;;28.10;65.90;;;;;;5058015;28;20036;-37
2021/08/06 12:33:38;;;;;;;16.70;8.23;;;27.80;66.60;;;;;;5057863;28;20033;-47
2021/08/06 12:36:12;;;;;;;14.73;7.03;;;27.40;68.00;;;;;;5057324;28;20033;-46
2021/08/06 12:38:38;;;;;;;16.00;8.73;;;27.10;68.20;;;;;;5057276;28;20056;-49